Almyros — 9HA2510 — position and weather

sailwx.info

Track history (hours):
 
Tides and Currents Weather Stations Pressure Air Temp Water Temp Dewpoint Dewpoint Depression Visibility Wind Speed Wind Dir Waves Ship Positions

Almyros

Last reported at 2015-May-24 14:28 UTC. Time now 2015-May-24 15:24 UTC.
Position N 43°21' E 034°26'.

Length 189 m; draft 12.7 m.

Type: Cargo ship. MMSI: 248779000.

Date/timePositionNaut miles runAvg speedWind from/ knotsBaromVisibWave heightAir tempDewpointWater temp
2015-May-24 14:28N 43°21' E 034°26'5412.3
2015-May-24 10:04N 43°46' E 035°33'1212.3
2015-May-24 09:04N 43°51' E 035°48'712.2
2015-May-24 08:32N 43°54' E 035°56'6612.7
2015-May-24 03:20N 44°24' E 037°18'912.2
2015-May-24 02:33N 44°28' E 037°30'1212.1
2015-May-24 01:33N 44°33' E 037°45'7 7.0
2015-May-24 00:33N 44°35' E 037°55'0 0.1
2015-May-23 23:33N 44°35' E 037°55'0 0.0
2015-May-23 22:33N 44°35' E 037°55'0 0.0
2015-May-23 21:33N 44°35' E 037°55'0 0.0
2015-May-23 20:33N 44°35' E 037°55'0 0.0
2015-May-23 19:27N 44°35' E 037°55'0 0.0
2015-May-23 18:33N 44°35' E 037°55'0 0.0
2015-May-23 17:33N 44°35' E 037°55'0 0.0
2015-May-23 16:33N 44°35' E 037°55'0 0.0
2015-May-23 15:33N 44°35' E 037°55'0 0.0
2015-May-23 14:33N 44°35' E 037°55'0 0.0
2015-May-23 13:33N 44°35' E 037°55'0 0.0
2015-May-23 12:33N 44°35' E 037°55'0 0.0
2015-May-23 11:33N 44°35' E 037°55'0 0.0
2015-May-23 10:33N 44°35' E 037°55'0 0.0
2015-May-23 09:30N 44°35' E 037°55'0 0.0
2015-May-23 08:33N 44°35' E 037°55'0 0.0
2015-May-23 07:33N 44°35' E 037°55'0 0.0
2015-May-23 06:33N 44°35' E 037°55'0 0.0
2015-May-23 05:33N 44°35' E 037°55'0 0.0
2015-May-23 04:33N 44°35' E 037°55'0 0.0
2015-May-23 03:33N 44°35' E 037°55'0 0.0
2015-May-23 02:33N 44°35' E 037°55'0 0.0
2015-May-23 01:30N 44°35' E 037°55'0 0.0
2015-May-23 00:33N 44°35' E 037°55'0 0.0
2015-May-22 23:30N 44°35' E 037°55'0 0.0
2015-May-22 22:33N 44°35' E 037°55'0 0.0
2015-May-22 21:33N 44°35' E 037°55'0 0.0
2015-May-22 20:27N 44°35' E 037°55'0 0.0
2015-May-22 19:33N 44°35' E 037°55'0 0.0
2015-May-22 18:27N 44°35' E 037°55'0 0.0
2015-May-22 17:33N 44°35' E 037°55'0 0.0
2015-May-22 16:33N 44°35' E 037°55'0 0.0
2015-May-22 15:33N 44°35' E 037°55'0 0.0
2015-May-22 12:09N 44°35' E 037°55'0 0.0
2015-May-22 11:33N 44°35' E 037°55'0 0.0
2015-May-22 10:30N 44°35' E 037°55'0 0.0
2015-May-22 09:33N 44°35' E 037°55'0 0.0
2015-May-22 08:30N 44°35' E 037°55'0 0.1
2015-May-22 07:33N 44°35' E 037°55'1 1.5
2015-May-22 06:34N 44°34' E 037°53'8 8.1
2015-May-22 05:33N 44°28' E 037°46'11 5.2
2015-May-22 03:28N 44°20' E 037°36'0 0.4
2015-May-22 02:25N 44°20' E 037°36'2 0.3
2015-May-21 19:31N 44°21' E 037°38'1 0.4
2015-May-21 16:31N 44°22' E 037°39'0 0.4
2015-May-21 15:31N 44°23' E 037°39'2 2.0
2015-May-21 14:32N 44°24' E 037°41'0 0.3
2015-May-21 13:29N 44°24' E 037°41'0 0.3
2015-May-21 12:26N 44°24' E 037°42'0 0.3
2015-May-21 11:32N 44°25' E 037°42'0 0.3
2015-May-21 10:26N 44°25' E 037°42'0 0.2
2015-May-21 09:32N 44°25' E 037°42'0 0.3
2015-May-21 08:32N 44°25' E 037°42'0 0.2
2015-May-21 07:32N 44°25' E 037°42'0 0.2
2015-May-21 06:32N 44°26' E 037°42'0 0.2
2015-May-21 05:32N 44°26' E 037°42'0 0.2
2015-May-21 04:32N 44°26' E 037°43'0 0.2
2015-May-21 03:32N 44°26' E 037°43'0 0.2
2015-May-21 02:32N 44°26' E 037°43'0 0.3
2015-May-21 01:08N 44°27' E 037°43'0 0.4
2015-May-21 00:26N 44°27' E 037°44'0 0.4
2015-May-20 23:20N 44°27' E 037°44'1 0.2
2015-May-20 20:33N 44°27' E 037°45'5 4.8
2015-May-20 19:34N 44°28' E 037°38'7811.1
2015-May-20 12:32N 44°12' E 035°52'1211.6
2015-May-20 11:31N 44°13' E 035°35'1111.7
2015-May-20 10:33N 44°14' E 035°20'2311.6
2015-May-20 08:33N 44°15' E 034°48'1111.2
2015-May-20 07:33N 44°16' E 034°32'1110.8
2015-May-20 06:34N 44°15' E 034°17'1010.0
2015-May-20 05:33N 44°15' E 034°03'6110.2
2015-May-19 23:33N 44°46' E 032°49'129 5.9
2015-May-19 01:31N 46°34' E 031°07'0 0.0
2015-May-19 00:31N 46°34' E 031°07'0 0.0
2015-May-18 23:31N 46°34' E 031°07'0 0.0
2015-May-18 22:28N 46°34' E 031°07'0 0.0
2015-May-18 21:31N 46°34' E 031°07'0 0.0
2015-May-18 20:10N 46°34' E 031°07'0 0.3
2015-May-18 18:27N 46°35' E 031°07'  
Track history (hours):
 
Tides and Currents Weather Stations Pressure Air Temp Water Temp Dewpoint Dewpoint Depression Visibility Wind Speed Wind Dir Waves Ship Positions

Almyros

Last reported at 2015-May-24 14:28 UTC. Time now 2015-May-24 15:24 UTC.
Position N 43°21' E 034°26'.

Length 189 m; draft 12.7 m.

Type: Cargo ship. MMSI: 248779000.

Date/timePositionNaut miles runAvg speedWind from/ knotsBaromVisibWave heightAir tempDewpointWater temp
2015-May-24 14:28N 43°21' E 034°26'5412.3
2015-May-24 10:04N 43°46' E 035°33'1212.3
2015-May-24 09:04N 43°51' E 035°48'712.2
2015-May-24 08:32N 43°54' E 035°56'6612.7
2015-May-24 03:20N 44°24' E 037°18'912.2
2015-May-24 02:33N 44°28' E 037°30'1212.1
2015-May-24 01:33N 44°33' E 037°45'7 7.0
2015-May-24 00:33N 44°35' E 037°55'0 0.1
2015-May-23 23:33N 44°35' E 037°55'0 0.0
2015-May-23 22:33N 44°35' E 037°55'0 0.0
2015-May-23 21:33N 44°35' E 037°55'0 0.0
2015-May-23 20:33N 44°35' E 037°55'0 0.0
2015-May-23 19:27N 44°35' E 037°55'0 0.0
2015-May-23 18:33N 44°35' E 037°55'0 0.0
2015-May-23 17:33N 44°35' E 037°55'0 0.0
2015-May-23 16:33N 44°35' E 037°55'0 0.0
2015-May-23 15:33N 44°35' E 037°55'0 0.0
2015-May-23 14:33N 44°35' E 037°55'0 0.0
2015-May-23 13:33N 44°35' E 037°55'0 0.0
2015-May-23 12:33N 44°35' E 037°55'0 0.0
2015-May-23 11:33N 44°35' E 037°55'0 0.0
2015-May-23 10:33N 44°35' E 037°55'0 0.0
2015-May-23 09:30N 44°35' E 037°55'0 0.0
2015-May-23 08:33N 44°35' E 037°55'0 0.0
2015-May-23 07:33N 44°35' E 037°55'0 0.0
2015-May-23 06:33N 44°35' E 037°55'0 0.0
2015-May-23 05:33N 44°35' E 037°55'0 0.0
2015-May-23 04:33N 44°35' E 037°55'0 0.0
2015-May-23 03:33N 44°35' E 037°55'0 0.0
2015-May-23 02:33N 44°35' E 037°55'0 0.0
2015-May-23 01:30N 44°35' E 037°55'0 0.0
2015-May-23 00:33N 44°35' E 037°55'0 0.0
2015-May-22 23:30N 44°35' E 037°55'0 0.0
2015-May-22 22:33N 44°35' E 037°55'0 0.0
2015-May-22 21:33N 44°35' E 037°55'0 0.0
2015-May-22 20:27N 44°35' E 037°55'0 0.0
2015-May-22 19:33N 44°35' E 037°55'0 0.0
2015-May-22 18:27N 44°35' E 037°55'0 0.0
2015-May-22 17:33N 44°35' E 037°55'0 0.0
2015-May-22 16:33N 44°35' E 037°55'0 0.0
2015-May-22 15:33N 44°35' E 037°55'0 0.0
2015-May-22 12:09N 44°35' E 037°55'0 0.0
2015-May-22 11:33N 44°35' E 037°55'0 0.0
2015-May-22 10:30N 44°35' E 037°55'0 0.0
2015-May-22 09:33N 44°35' E 037°55'0 0.0
2015-May-22 08:30N 44°35' E 037°55'0 0.1
2015-May-22 07:33N 44°35' E 037°55'1 1.5
2015-May-22 06:34N 44°34' E 037°53'8 8.1
2015-May-22 05:33N 44°28' E 037°46'11 5.2
2015-May-22 03:28N 44°20' E 037°36'0 0.4
2015-May-22 02:25N 44°20' E 037°36'2 0.3
2015-May-21 19:31N 44°21' E 037°38'1 0.4
2015-May-21 16:31N 44°22' E 037°39'0 0.4
2015-May-21 15:31N 44°23' E 037°39'2 2.0
2015-May-21 14:32N 44°24' E 037°41'0 0.3
2015-May-21 13:29N 44°24' E 037°41'0 0.3
2015-May-21 12:26N 44°24' E 037°42'0 0.3
2015-May-21 11:32N 44°25' E 037°42'0 0.3
2015-May-21 10:26N 44°25' E 037°42'0 0.2
2015-May-21 09:32N 44°25' E 037°42'0 0.3
2015-May-21 08:32N 44°25' E 037°42'0 0.2
2015-May-21 07:32N 44°25' E 037°42'0 0.2
2015-May-21 06:32N 44°26' E 037°42'0 0.2
2015-May-21 05:32N 44°26' E 037°42'0 0.2
2015-May-21 04:32N 44°26' E 037°43'0 0.2
2015-May-21 03:32N 44°26' E 037°43'0 0.2
2015-May-21 02:32N 44°26' E 037°43'0 0.3
2015-May-21 01:08N 44°27' E 037°43'0 0.4
2015-May-21 00:26N 44°27' E 037°44'0 0.4
2015-May-20 23:20N 44°27' E 037°44'1 0.2
2015-May-20 20:33N 44°27' E 037°45'5 4.8
2015-May-20 19:34N 44°28' E 037°38'7811.1
2015-May-20 12:32N 44°12' E 035°52'1211.6
2015-May-20 11:31N 44°13' E 035°35'1111.7
2015-May-20 10:33N 44°14' E 035°20'2311.6
2015-May-20 08:33N 44°15' E 034°48'1111.2
2015-May-20 07:33N 44°16' E 034°32'1110.8
2015-May-20 06:34N 44°15' E 034°17'1010.0
2015-May-20 05:33N 44°15' E 034°03'6110.2
2015-May-19 23:33N 44°46' E 032°49'129 5.9
2015-May-19 01:31N 46°34' E 031°07'0 0.0
2015-May-19 00:31N 46°34' E 031°07'0 0.0
2015-May-18 23:31N 46°34' E 031°07'0 0.0
2015-May-18 22:28N 46°34' E 031°07'0 0.0
2015-May-18 21:31N 46°34' E 031°07'0 0.0
2015-May-18 20:10N 46°34' E 031°07'0 0.3
2015-May-18 18:27N 46°35' E 031°07'  

Dump ship's entire track history